M I D A S
Marine Information and Data Acquisition System
Tripno 1850 of the Zeeleeuw from 2010-03-30 06:50:56 to 2010-03-30 15:46:48
Back to CruiseResearch ActivitiesStationsMapUnderway DataData graphs

EquipmentUnitsComment
TimeDGPSUTC
LatitudeDGPSDM.mWGS84
LongitudeDGPSDM.mWGS84
TemperatureSBE03/SBE38deg celciusITS90
ConductivitySBE21S/mITS90
SalinitySBE21 Practical Salinity Units
ChlorophylAChelsea fluorimeterg/lCalibrated in Aceton
Missing or incorrect values are displayed as -999
Sea surface data collected by the RV Zeeleeuw from 2010-03-30 06:47:28 to 2010-03-30 16:28:13
Time Latitude Longitude Temperature Conductivity Salinity ChlorophylA
2010-03-30 06:48:33 51°13.683 2°55.889 16.3943 2.214911 14.908147 -1.348809
2010-03-30 06:49:33 51°13.695 2°55.79 16.364 2.214601 14.907226 -1.348809
2010-03-30 06:50:31 51°13.693 2°55.728 16.4241 2.214394 14.907881 -1.348809
2010-03-30 06:51:29 51°13.728 2°55.722 16.3872 2.214187 14.906633 -1.348809
2010-03-30 06:52:29 51°13.806 2°55.654 16.0512 2.213981 14.904841 -1.348809
2010-03-30 06:53:29 51°13.899 2°55.626 16.2997 2.213568 14.904791 -1.348809
2010-03-30 06:54:29 51°13.994 2°55.578 16.3512 2.213258 14.904413 -1.348809
2010-03-30 06:55:29 51°14.102 2°55.466 16.2298 2.213051 14.902621 -1.348809
2010-03-30 06:56:29 51°14.228 2°55.323 16.1901 2.212638 14.900124 -1.348809
2010-03-30 06:57:29 51°14.365 2°55.166 16.1914 2.212431 14.902138 -1.348809
2010-03-30 06:58:29 51°14.515 2°55.016 16.3069 2.212225 14.903065 -1.348809
2010-03-30 06:59:29 51°14.617 2°54.78 16.1814 2.209848 14.885032 -1.348809
2010-03-30 07:00:29 51°14.594 2°54.463 15.9916 2.211088 14.893341 -1.348809
2010-03-30 07:01:29 51°14.49 2°54.137 15.9526 2.201583 14.823409 -1.348809
2010-03-30 07:02:29 51°14.361 2°53.822 15.9831 2.208195 14.873953 -1.348809
2010-03-30 07:03:29 51°14.233 2°53.501 15.9828 2.209952 14.889325 -1.348809
2010-03-30 07:04:29 51°14.105 2°53.167 15.9073 2.209538 14.887098 -1.348809
2010-03-30 07:05:29 51°13.982 2°52.825 16.0038 2.209745 14.892425 -1.348809
2010-03-30 07:06:29 51°13.854 2°52.483 15.9786 2.209435 14.890415 -1.348809
2010-03-30 07:07:29 51°13.73 2°52.14 16.0528 2.209332 14.892374 -1.348809
2010-03-30 07:08:29 51°13.618 2°51.844 16.0801 2.209125 14.891941 -1.348809
2010-03-30 07:09:29 51°13.526 2°51.593 16.0937 2.208919 14.893684 -1.348809
2010-03-30 07:10:29 51°13.458 2°51.439 16.1193 2.208505 14.890639 -1.348809
2010-03-30 07:11:31 51°13.446 2°51.406 16.1047 2.208299 14.89075 -1.348809
2010-03-30 07:12:31 51°13.444 2°51.395 16.0956 2.208092 14.890044 -1.348809
2010-03-30 07:13:29 51°13.44 2°51.38 15.8159 2.207782 14.889393 -1.348809
2010-03-30 07:14:29 51°13.434 2°51.36 15.8738 2.207266 14.885315 -1.348809
2010-03-30 07:15:29 51°13.428 2°51.336 15.8935 2.207162 14.887547 -1.348809
2010-03-30 07:16:29 51°13.421 2°51.309 15.9141 2.206852 14.887168 -1.348809
2010-03-30 07:17:29 51°13.414 2°51.28 15.9272 2.206542 14.887062 -1.348809
2010-03-30 07:18:29 51°13.407 2°51.248 15.9435 2.206233 14.886955 -1.348809
2010-03-30 07:19:29 51°13.4 2°51.213 15.9758 2.205923 14.887121 -1.383633
2010-03-30 07:20:29 51°13.393 2°51.177 16.0037 2.205613 14.887832 -1.348809
2010-03-30 07:21:29 51°13.385 2°51.139 16.02 2.205199 14.886419 -1.348809
2010-03-30 07:22:29 51°13.371 2°51.085 16.048 2.204993 14.888711 -1.348809
2010-03-30 07:23:29 51°13.316 2°51.036 16.0589 2.204683 14.887787 -1.383633
2010-03-30 07:24:29 51°13.271 2°51.073 16.073 2.20427 14.886101 -1.348809
2010-03-30 07:25:29 51°13.296 2°51.12 16.0177 2.203546 14.880221 -1.383633
2010-03-30 07:26:29 51°13.366 2°51.22 16.0869 2.20334 14.882239 -1.348809
2010-03-30 07:27:29 51°13.426 2°51.387 16.1136 2.20303 14.886769 -1.383633
2010-03-30 07:28:29 51°13.5 2°51.541 16.1364 2.202824 14.888246 -1.383633
2010-03-30 07:29:29 51°13.555 2°51.572 16.1497 2.20241 14.886286 -1.383633
2010-03-30 07:30:29 51°13.569 2°51.532 16.1626 2.2021 14.884816 -1.383633
2010-03-30 07:31:29 51°13.571 2°51.483 16.1824 2.20148 14.879693 -1.383633
2010-03-30 07:32:29 51°13.572 2°51.434 16.1942 2.20117 14.880405 -1.383633
2010-03-30 07:33:29 51°13.571 2°51.385 16.2256 2.200964 14.880789 -1.348809
2010-03-30 07:34:29 51°13.569 2°51.339 16.2447 2.200654 14.88123 -1.383633
2010-03-30 07:35:29 51°13.563 2°51.304 16.2704 2.200344 14.879486 -1.383633
2010-03-30 07:36:29 51°13.557 2°51.284 16.2838 2.200034 14.880472 -1.383633
2010-03-30 07:37:29 51°13.55 2°51.266 16.3064 2.199724 14.879001 -1.348809
2010-03-30 07:38:29 51°13.545 2°51.246 16.3327 2.199414 14.879169 -1.383633
2010-03-30 07:39:29 51°13.524 2°51.18 16.3538 2.199001 14.877207 -1.383633
2010-03-30 07:40:29 51°13.45 2°51.151 16.3693 2.198691 14.876282 -1.383633
2010-03-30 07:41:29 51°13.421 2°51.236 16.3707 2.197968 14.870663 -1.383633
2010-03-30 07:42:29 51°13.482 2°51.345 16.3624 2.197968 14.871482 -1.383633
2010-03-30 07:43:29 51°13.503 2°51.455 16.3903 2.198278 14.884159 -1.383633
2010-03-30 07:44:29 51°13.482 2°51.482 16.4177 2.197865 14.881923 -1.383633
2010-03-30 07:45:29 51°13.465 2°51.464 16.4316 2.197658 14.880394 -1.383633
2010-03-30 07:46:29 51°13.45 2°51.438 16.4478 2.197245 14.878705 -1.383633
2010-03-30 07:47:29 51°13.438 2°51.407 16.4711 2.196935 14.879421 -1.383633
2010-03-30 07:48:29 51°13.428 2°51.372 16.504 2.196728 14.880628 -1.383633
2010-03-30 07:49:29 51°13.421 2°51.335 16.5056 2.196315 14.879485 -1.383633
2010-03-30 07:50:29 51°13.416 2°51.298 16.5407 2.196005 14.88157 -1.383633
2010-03-30 07:51:29 51°13.413 2°51.26 16.5666 2.195799 14.881957 -1.383633
2010-03-30 07:52:29 51°13.411 2°51.223 16.5931 2.195179 14.879011 -1.383633
2010-03-30 07:53:29 51°13.41 2°51.191 16.6015 2.194972 14.879124 -1.383633
2010-03-30 07:54:29 51°13.407 2°51.162 16.602 2.194456 14.877489 -1.383633
2010-03-30 07:55:29 51°13.402 2°51.134 16.6349 2.194146 14.877659 -1.383633
2010-03-30 07:56:29 51°13.396 2°51.106 16.6636 2.193836 14.878377 -1.383633
2010-03-30 07:57:29 51°13.391 2°51.078 16.6744 2.193629 14.879038 -1.383633
2010-03-30 07:58:29 51°13.385 2°51.049 16.6796 2.193319 14.878386 -1.383633
2010-03-30 07:59:29 51°13.38 2°51.021 16.7093 2.19301 14.877734 -1.383633
2010-03-30 08:00:29 51°13.375 2°50.995 16.6997 2.19301 14.882396 -1.383633
2010-03-30 08:01:29 51°13.37 2°50.968 16.7184 2.19239 14.878075 -1.383633
2010-03-30 08:02:29 51°13.365 2°50.94 16.736 2.19208 14.877972 -1.383633
2010-03-30 08:03:29 51°13.359 2°50.913 16.7542 2.191667 14.877376 -1.383633
2010-03-30 08:04:29 51°13.354 2°50.887 16.7721 2.191253 14.87733 -1.383633
2010-03-30 08:05:29 51°13.35 2°50.861 16.7854 2.190944 14.876678 -1.418457
2010-03-30 08:06:29 51°13.345 2°50.836 16.8112 2.190634 14.878496 -1.383633
2010-03-30 08:07:29 51°13.326 2°50.785 16.8224 2.19022 14.876528 -1.383633
2010-03-30 08:08:29 51°13.273 2°50.756 16.8312 2.189807 14.875658 -1.383633
2010-03-30 08:09:29 51°13.235 2°50.802 16.8434 2.189394 14.875338 -1.418457
2010-03-30 08:10:29 51°13.273 2°50.851 16.7915 2.186708 14.854032 -1.383633
2010-03-30 08:11:29 51°13.308 2°50.924 16.8259 2.188774 14.878704 -1.383633
2010-03-30 08:12:29 51°13.335 2°50.997 16.8485 2.188361 14.87811 -1.418457
2010-03-30 08:13:29 51°13.366 2°51.075 16.8671 2.187948 14.876415 -1.418457
2010-03-30 08:14:29 51°13.395 2°51.155 16.8772 2.187638 14.876588 -1.383633
2010-03-30 08:15:29 51°13.426 2°51.232 16.8823 2.187225 14.875718 -1.418457
2010-03-30 08:16:29 51°13.458 2°51.308 16.8829 2.186811 14.875673 -1.383633
2010-03-30 08:17:29 51°13.486 2°51.387 16.9218 2.186502 14.876121 -1.418457
2010-03-30 08:18:29 51°13.517 2°51.463 16.9195 2.186088 14.874426 -1.418457
2010-03-30 08:19:29 51°13.548 2°51.54 16.9297 2.185778 14.875149 -1.418457
2010-03-30 08:20:29 51°13.578 2°51.617 16.9539 2.185365 14.874004 -1.418457
2010-03-30 08:21:29 51°13.608 2°51.696 16.9662 2.185159 14.87467 -1.418457
2010-03-30 08:22:29 51°13.638 2°51.774 16.9823 2.184849 14.874293 -1.418457
2010-03-30 08:23:29 51°13.668 2°51.854 16.9754 2.184539 14.873916 -1.418457
2010-03-30 08:24:29 51°13.697 2°51.935 17.0106 2.184126 14.87277 -1.418457
2010-03-30 08:25:29 51°13.727 2°52.016 17.0326 2.183816 14.872393 -1.418457
2010-03-30 08:26:29 51°13.757 2°52.099 17.0342 2.183506 14.872566 -1.418457
2010-03-30 08:27:29 51°13.787 2°52.182 17.0508 2.183196 14.872465 -1.418457
2010-03-30 08:28:29 51°13.817 2°52.265 17.0687 2.182886 14.872639 -1.418457
2010-03-30 08:29:29 51°13.847 2°52.347 17.0786 2.182576 14.872537 -1.418457
2010-03-30 08:30:29 51°13.876 2°52.43 17.1046 2.182266 14.872436 -1.418457
2010-03-30 08:31:29 51°13.906 2°52.512 17.0999 2.181956 14.87261 -1.418457
2010-03-30 08:32:29 51°13.936 2°52.594 17.1229 2.181543 14.87174 -1.418457
2010-03-30 08:33:29 51°13.967 2°52.677 17.1186 2.181233 14.871914 -1.418457
2010-03-30 08:34:29 51°13.995 2°52.765 17.1475 2.180923 14.872089 -1.418457
2010-03-30 08:35:29 51°14.023 2°52.852 17.1629 2.180613 14.871988 -1.418457
2010-03-30 08:36:29 51°14.046 2°52.943 17.1236 2.179994 14.86875 -1.453281
2010-03-30 08:37:29 51°14.042 2°53.04 17.1544 2.17989 14.871017 -1.418457
2010-03-30 08:38:29 51°14.011 2°53.131 17.1616 2.17958 14.87064 -1.418457
2010-03-30 08:39:29 51°13.954 2°53.196 17.1585 2.17927 14.870263 -1.418457
2010-03-30 08:40:29 51°13.877 2°53.198 17.2187 2.179064 14.873142 -1.418457
2010-03-30 08:41:29 51°13.803 2°53.131 17.222 2.178754 14.872213 -1.418457
2010-03-30 08:42:29 51°13.767 2°53.001 17.2194 2.178341 14.872172 -1.418457
2010-03-30 08:43:29 51°13.77 2°52.874 17.251 2.178134 14.873119 -1.418457
2010-03-30 08:44:29 51°13.784 2°52.771 17.266 2.177721 14.872801 -1.418457
2010-03-30 08:45:29 51°13.788 2°52.689 17.2714 2.177308 14.871654 -1.418457
2010-03-30 08:46:29 51°13.785 2°52.619 17.2769 2.176895 14.870783 -1.418457
2010-03-30 08:47:29 51°13.78 2°52.559 17.2882 2.176585 14.87096 -1.453281
2010-03-30 08:48:29 51°13.774 2°52.505 17.3044 2.176275 14.871967 -1.418457
2010-03-30 08:49:29 51°13.734 2°52.366 17.3007 2.174002 14.856386 -1.418457
2010-03-30 08:50:29 51°13.645 2°52.233 17.2956 2.173072 14.85221 -1.418457
2010-03-30 08:51:29 51°13.581 2°52.17 17.3033 2.173899 14.861699 -1.453281
2010-03-30 08:52:29 51°13.534 2°52.127 17.314 2.174209 14.867058 -1.418457
2010-03-30 08:53:29 51°13.499 2°52.086 17.3146 2.174002 14.868007 -1.418457
2010-03-30 08:54:29 51°13.473 2°52.047 17.3221 2.173899 14.870006 -1.453281
2010-03-30 08:55:29 51°13.453 2°52.007 17.3257 2.173176 14.867096 -1.453281
2010-03-30 08:56:29 51°13.437 2°51.969 17.332 2.172969 14.868323 -1.453281
2010-03-30 08:57:29 51°13.422 2°51.927 17.3238 2.172349 14.86563 -1.453281
2010-03-30 08:58:29 51°13.407 2°51.829 17.3094 2.172659 14.872383 -1.453281
2010-03-30 08:59:29 51°13.429 2°51.714 17.3208 2.17235 14.872007 -1.453281
2010-03-30 09:00:29 51°13.464 2°51.578 17.3049 2.171523 14.867491 -1.418457
2010-03-30 09:01:29 51°13.465 2°51.505 17.3329 2.17173 14.872643 -1.418457
2010-03-30 09:02:29 51°13.459 2°51.475 17.3398 2.171317 14.870385 -1.453281
2010-03-30 09:03:29 51°13.455 2°51.445 17.3566 2.171007 14.870842 -1.418457
2010-03-30 09:04:29 51°13.452 2°51.415 17.3648 2.170697 14.870466 -1.418457
2010-03-30 09:05:29 51°13.451 2°51.384 17.3683 2.170387 14.870368 -1.418457
2010-03-30 09:06:29 51°13.449 2°51.353 17.3922 2.169974 14.869497 -1.453281
2010-03-30 09:07:29 51°13.449 2°51.321 17.3937 2.169767 14.871562 -1.453281
2010-03-30 09:08:29 51°13.438 2°51.269 17.4322 2.169561 14.874739 -1.453281
2010-03-30 09:09:30 51°13.383 2°51.231 17.4242 2.168941 14.870931 -1.453281
2010-03-30 09:10:30 51°13.354 2°51.291 17.4318 2.168528 14.870616 -1.453281
2010-03-30 09:11:30 51°13.419 2°51.487 17.4257 2.167804 14.866034 -1.453281
2010-03-30 09:12:30 51°13.525 2°51.751 17.4335 2.167908 14.871812 -1.453281
2010-03-30 09:13:30 51°13.636 2°52.033 17.4428 2.167495 14.872333 -1.453281
2010-03-30 09:14:30 51°13.747 2°52.318 17.4436 2.167185 14.872236 -1.453281
2010-03-30 09:15:30 51°13.856 2°52.607 17.4534 2.166772 14.872478 -1.453281
2010-03-30 09:16:30 51°13.968 2°52.895 17.4701 2.166358 14.872443 -1.453281
2010-03-30 09:17:30 51°14.099 2°53.163 17.4812 2.165842 14.87219 -1.453281
2010-03-30 09:18:30 51°14.245 2°53.412 17.4833 2.165635 14.875376 -1.453281
2010-03-30 09:19:30 51°14.394 2°53.654 17.5015 2.165429 14.879681 -1.453281
2010-03-30 09:20:30 51°14.587 2°53.651 17.4776 2.153341 14.787337 -1.453281
2010-03-30 09:21:30 51°14.669 2°53.331 17.5146 2.164292 14.873941 -1.453281
2010-03-30 09:22:30 51°14.714 2°52.966 17.5133 2.162846 14.863921 -1.453281
2010-03-30 09:23:30 51°14.758 2°52.593 17.517 2.16202 14.861619 -1.453281
2010-03-30 09:24:30 51°14.802 2°52.216 17.5238 2.161607 14.861862 -1.453281
2010-03-30 09:25:30 51°14.847 2°51.843 17.5284 2.16202 14.868871 -1.453281
2010-03-30 09:26:29 51°14.892 2°51.476 17.5305 2.16047 14.859463 -1.453281
2010-03-30 09:27:30 51°14.94 2°51.102 17.532 2.160574 14.86275 -1.453281
2010-03-30 09:28:30 51°14.988 2°50.737 17.5353 2.159024 14.854176 -1.453281
2010-03-30 09:29:30 51°15.035 2°50.374 17.5348 2.158404 14.852866 -1.453281
2010-03-30 09:30:30 51°15.081 2°50.013 17.538 2.155098 14.831089 -1.453281
2010-03-30 09:31:30 51°15.127 2°49.654 17.5357 2.153549 14.822228 -1.453281
2010-03-30 09:32:30 51°15.175 2°49.3 17.5359 2.153342 14.82374 -1.453281
2010-03-30 09:33:30 51°15.223 2°48.949 17.5382 2.154169 14.832741 -1.453281
2010-03-30 09:34:30 51°15.269 2°48.599 17.5398 2.151896 14.82039 -1.453281
2010-03-30 09:35:30 51°15.32 2°48.255 17.5429 2.156648 14.860607 -1.453281
2010-03-30 09:36:30 51°15.411 2°47.939 17.5444 2.156855 14.864959 -1.453281
2010-03-30 09:37:30 51°15.55 2°47.664 17.5446 2.155202 14.855874 -1.453281
2010-03-30 09:38:30 51°15.695 2°47.392 17.5424 2.155512 14.861005 -1.488105
2010-03-30 09:39:30 51°15.816 2°47.096 17.545 2.142702 14.768482 -1.453281
2010-03-30 09:40:30 51°15.904 2°46.771 17.5482 2.150863 14.831873 -1.453281
2010-03-30 09:41:30 51°15.988 2°46.445 17.5474 2.146421 14.803446 -1.488105
2010-03-30 09:42:30 51°16.073 2°46.122 17.5472 2.152516 14.854675 -1.453281
2010-03-30 09:43:30 51°16.156 2°45.8 17.5464 2.151277 14.848133 -1.488105
2010-03-30 09:44:30 51°16.239 2°45.481 17.5489 2.15076 14.84816 -1.488105
2010-03-30 09:45:30 51°16.336 2°45.169 17.549 2.153446 14.87262 -1.488105
2010-03-30 09:46:30 51°16.432 2°44.859 17.5489 2.151484 14.861743 -1.488105
2010-03-30 09:47:30 51°16.526 2°44.544 17.5489 2.151794 14.868011 -1.488105
2010-03-30 09:48:30 51°16.621 2°44.228 17.5473 2.149728 14.85635 -1.488105
2010-03-30 09:49:30 51°16.72 2°43.914 17.5498 2.150038 14.861777 -1.488105
2010-03-30 09:50:30 51°16.846 2°43.63 17.5504 2.146938 14.842031 -1.488105
2010-03-30 09:51:30 51°16.975 2°43.35 17.5517 2.144666 14.828799 -1.488105
2010-03-30 09:52:30 51°17.106 2°43.071 17.5511 2.148591 14.861532 -1.488105
2010-03-30 09:53:30 51°17.238 2°42.797 17.5511 2.143323 14.827631 -1.488105
2010-03-30 09:54:30 51°17.372 2°42.517 17.5527 2.147145 14.860445 -1.488105
2010-03-30 09:55:30 51°17.509 2°42.229 17.5503 2.135988 14.780346 -1.488105
2010-03-30 09:56:30 51°17.644 2°41.94 17.549 2.144976 14.852203 -1.488105
2010-03-30 09:57:30 51°17.764 2°41.638 17.5402 2.115431 14.631209 -1.488105
2010-03-30 09:58:30 51°17.825 2°41.29 17.5634 2.135885 14.791609 -1.488105
2010-03-30 09:59:30 51°17.881 2°40.938 17.567 2.144563 14.862028 -1.488105
2010-03-30 10:00:30 51°17.941 2°40.596 17.5592 2.143943 14.860719 -1.488105
2010-03-30 10:01:30 51°18.003 2°40.259 17.5592 2.143737 14.861692 -1.488105
2010-03-30 10:02:30 51°18.069 2°39.925 17.5546 2.142497 14.857381 -1.488105
2010-03-30 10:03:30 51°18.126 2°39.589 17.5623 2.102106 14.553519 -1.488105
2010-03-30 10:04:30 51°18.119 2°39.234 17.5687 2.143117 14.871671 -1.488105
2010-03-30 10:05:30 51°18.103 2°38.875 17.5551 2.142084 14.866102 -1.488105
2010-03-30 10:06:30 51°18.092 2°38.516 17.551 2.140741 14.860724 -1.488105
2010-03-30 10:07:30 51°18.083 2°38.155 17.5512 2.140741 14.864679 -1.488105
2010-03-30 10:08:30 51°18.073 2°37.794 17.5476 2.140845 14.869985 -1.488105
2010-03-30 10:09:30 51°18.064 2°37.433 17.5466 2.138262 14.854636 -1.488105
2010-03-30 10:10:30 51°18.052 2°37.072 17.5437 2.138882 14.861034 -1.488105
2010-03-30 10:11:30 51°18.04 2°36.713 17.5475 2.139089 14.868825 -1.488105
2010-03-30 10:12:30 51°18.029 2°36.359 17.5424 2.137333 14.859173 -1.488105
2010-03-30 10:13:30 51°18.017 2°36.013 17.5413 2.138676 14.874183 -1.488105
2010-03-30 10:14:30 51°17.989 2°35.67 17.5391 2.137023 14.86503 -1.488105
2010-03-30 10:15:30 51°17.961 2°35.326 17.5385 2.136093 14.862783 -1.488105
2010-03-30 10:16:30 51°17.92 2°34.984 17.5431 2.136713 14.870893 -1.488105
2010-03-30 10:17:30 51°17.879 2°34.644 17.5378 2.136093 14.871287 -1.488105
2010-03-30 10:18:30 51°17.829 2°34.303 17.5396 2.130928 14.834858 -1.488105
2010-03-30 10:19:30 51°17.741 2°33.978 17.5351 2.134441 14.866948 -1.488105
2010-03-30 10:20:30 51°17.648 2°33.655 17.5346 2.135577 14.881555 -1.488105
2010-03-30 10:21:30 51°17.557 2°33.331 17.5312 2.134544 14.879379 -1.488105
2010-03-30 10:22:30 51°17.465 2°33.017 17.5316 2.134441 14.88428 -1.488105
2010-03-30 10:23:30 51°17.377 2°32.71 17.5282 2.124834 14.815679 -1.488105
2010-03-30 10:24:30 51°17.291 2°32.403 17.5293 2.132892 14.881016 -1.488105
2010-03-30 10:25:30 51°17.204 2°32.097 17.5248 2.131239 14.8744 -1.488105
2010-03-30 10:26:30 51°17.116 2°31.794 17.5239 2.12907 14.866121 -1.488105
2010-03-30 10:27:30 51°17.029 2°31.491 17.5232 2.130722 14.880717 -1.488105
2010-03-30 10:28:30 51°16.94 2°31.188 17.5265 2.130413 14.885767 -1.488105
2010-03-30 10:29:30 51°16.849 2°30.884 17.5224 2.127417 14.868043 -1.488105
2010-03-30 10:30:30 51°16.761 2°30.579 17.5189 2.127211 14.873026 -1.488105
2010-03-30 10:31:30 51°16.673 2°30.274 17.5192 2.127934 14.8834 -1.488105
2010-03-30 10:32:30 51°16.584 2°29.967 17.5169 2.127107 14.884516 -1.488105
2010-03-30 10:33:30 51°16.495 2°29.66 17.5148 2.122356 14.85335 -1.488105
2010-03-30 10:34:30 51°16.406 2°29.354 17.5125 2.124422 14.872566 -1.488105
2010-03-30 10:35:30 51°16.316 2°29.049 17.5132 2.122666 14.868001 -1.488105
2010-03-30 10:36:30 51°16.23 2°28.745 17.5106 2.115538 14.820628 -1.488105
2010-03-30 10:37:30 51°16.146 2°28.443 17.5161 2.11967 14.855664 -1.488105
2010-03-30 10:38:30 51°16.064 2°28.14 17.5222 2.122769 14.890843 -1.488105
2010-03-30 10:39:30 51°15.985 2°27.845 17.5226 2.12215 14.891547 -1.522929
2010-03-30 10:40:30 51°15.909 2°27.558 17.5089 2.118741 14.869732 -1.522929
2010-03-30 10:41:30 51°15.837 2°27.271 17.5184 2.120394 14.892446 -1.488105
2010-03-30 10:42:30 51°15.813 2°26.966 17.5058 2.108411 14.804592 -1.488105
2010-03-30 10:43:30 51°15.791 2°26.665 17.5154 2.059656 14.439736 -1.522929
2010-03-30 10:44:30 51°15.765 2°26.372 17.5128 2.110684 14.835185 -1.488105
2010-03-30 10:45:30 51°15.739 2°26.081 17.5383 2.115126 14.878184 -1.522929
2010-03-30 10:46:30 51°15.734 2°25.791 17.5282 2.115126 14.881925 -1.522929
2010-03-30 10:47:30 51°15.742 2°25.517 17.5881 2.116366 14.897787 -1.522929
2010-03-30 10:48:30 51°15.851 2°25.395 17.4839 2.115643 14.896555 -1.522929
2010-03-30 10:49:30 51°15.972 2°25.317 17.5157 2.11523 14.900591 -1.488105
2010-03-30 10:50:30 51°16.075 2°25.329 17.5117 2.114403 14.896833 -1.488105
2010-03-30 10:51:30 51°16.1 2°25.396 17.4926 2.113784 14.89986 -1.488105
2010-03-30 10:52:33 51°16.104 2°25.459 17.4887 2.112957 14.894079 -1.488105
2010-03-30 10:53:31 51°16.113 2°25.523 17.5005 2.112441 14.895302 -1.488105
2010-03-30 10:54:30 51°16.125 2°25.597 17.5322 2.111615 14.893563 -1.522929
2010-03-30 10:55:30 51°16.134 2°25.679 17.5364 2.111202 14.896163 -1.522929
2010-03-30 10:56:30 51°16.14 2°25.762 17.5297 2.110479 14.899561 -1.522929
2010-03-30 10:57:30 51°16.144 2°25.845 17.5273 2.109962 14.891819 -1.522929
2010-03-30 10:58:30 51°16.148 2°25.926 17.5253 2.109652 14.889142 -1.522929
2010-03-30 10:59:30 51°16.15 2°26.012 17.5297 2.109033 14.900284 -1.522929
2010-03-30 11:00:30 51°16.127 2°26.138 17.5216 2.108413 14.90304 -1.522929
2010-03-30 11:01:30 51°16.101 2°26.354 17.5327 2.103868 14.864501 -1.488105
2010-03-30 11:02:30 51°16.118 2°26.655 17.5497 2.107173 14.900724 -1.522929
2010-03-30 11:03:30 51°16.14 2°26.97 17.555 2.106554 14.900581 -1.522929
2010-03-30 11:04:30 51°16.143 2°27.29 17.5532 2.105831 14.903706 -1.522929
2010-03-30 11:05:30 51°16.147 2°27.654 17.5604 2.105418 14.908942 -1.522929
2010-03-30 11:06:30 51°16.213 2°28.033 17.5681 2.101802 14.875194 -1.522929
2010-03-30 11:07:30 51°16.322 2°28.392 17.5766 2.103868 14.900161 -1.522929
2010-03-30 11:08:30 51°16.425 2°28.767 17.5451 2.103662 14.909036 -1.522929
2010-03-30 11:09:30 51°16.524 2°29.145 17.5465 2.101906 14.894287 -1.522929
2010-03-30 11:10:30 51°16.623 2°29.524 17.5627 2.102319 14.903012 -1.522929
2010-03-30 11:11:30 51°16.715 2°29.902 17.5642 2.101906 14.903599 -1.522929
2010-03-30 11:12:30 51°16.806 2°30.281 17.563 2.101286 14.904335 -1.522929
2010-03-30 11:13:30 51°16.897 2°30.657 17.5575 2.10077 14.904123 -1.522929
2010-03-30 11:14:30 51°16.987 2°31.03 17.5508 2.10015 14.902529 -1.522929
2010-03-30 11:15:30 51°17.078 2°31.4 17.5743 2.099634 14.900277 -1.522929
2010-03-30 11:16:30 51°17.166 2°31.77 17.5714 2.099117 14.90269 -1.522929
2010-03-30 11:17:30 51°17.254 2°32.144 17.56 2.098704 14.900946 -1.522929
2010-03-30 11:18:30 51°17.346 2°32.522 17.566 2.098188 14.900443 -1.522929
2010-03-30 11:19:30 51°17.44 2°32.896 17.5703 2.097361 14.896662 -1.522929
2010-03-30 11:20:30 51°17.531 2°33.281 17.5735 2.096742 14.894482 -1.522929
2010-03-30 11:21:30 51°17.622 2°33.665 17.5801 2.096845 14.899077 -1.522929
2010-03-30 11:22:30 51°17.715 2°34.046 17.5774 2.096225 14.896313 -1.522929
2010-03-30 11:23:30 51°17.815 2°34.43 17.5917 2.095606 14.893549 -1.522929
2010-03-30 11:24:30 51°17.911 2°34.818 17.5885 2.095089 14.891585 -1.522929
2010-03-30 11:25:30 51°17.954 2°35.223 17.6515 2.096226 14.907708 -1.522929
2010-03-30 11:26:30 51°17.831 2°35.532 17.6376 2.096742 14.935451 -1.522929
2010-03-30 11:27:30 51°17.652 2°35.754 17.6412 2.096226 14.929675 -1.522929
2010-03-30 11:28:30 51°17.441 2°35.806 17.6326 2.093747 14.91304 -1.522929
2010-03-30 11:29:30 51°17.23 2°35.806 17.6506 2.076601 14.824089 -1.522929
2010-03-30 11:30:30 51°17.018 2°35.851 17.6545 2.090339 14.947674 -1.522929
2010-03-30 11:31:30 51°16.807 2°35.896 17.6605 2.090339 14.948264 -1.522929
2010-03-30 11:32:30 51°16.6 2°35.939 17.654 2.07939 14.884879 -1.522929
2010-03-30 11:33:30 51°16.394 2°35.982 17.6491 2.088377 14.96073 -1.522929
2010-03-30 11:34:30 51°16.189 2°36.03 17.6692 2.085691 14.940322 -1.522929
2010-03-30 11:35:30 51°15.99 2°36.078 17.672 2.084969 14.942657 -1.522929
2010-03-30 11:36:30 51°15.793 2°36.132 17.669 2.085279 14.966136 -1.522929
2010-03-30 11:37:30 51°15.597 2°36.24 17.67 2.084556 14.972952 -1.522929
2010-03-30 11:38:30 51°15.398 2°36.348 17.6806 2.083523 14.96872 -1.522929
2010-03-30 11:39:30 51°15.197 2°36.458 17.6743 2.082077 14.95857 -1.522929
2010-03-30 11:40:30 51°14.994 2°36.566 17.6844 2.081147 14.949497 -1.522929
2010-03-30 11:41:30 51°14.79 2°36.677 17.6875 2.079701 14.945585 -1.522929
2010-03-30 11:42:30 51°14.584 2°36.785 17.6941 2.079391 14.936918 -1.522929
2010-03-30 11:43:30 51°14.376 2°36.894 17.6883 2.077326 14.943294 -1.522929
2010-03-30 11:44:30 51°14.168 2°37.004 17.6939 2.076396 14.950283 -1.557753
2010-03-30 11:45:30 51°13.959 2°37.118 17.6788 2.075777 14.942435 -1.557753
2010-03-30 11:46:30 51°13.751 2°37.23 17.6764 2.074434 14.947077 -1.522929
2010-03-30 11:47:30 51°13.545 2°37.343 17.6901 2.073505 14.9517 -1.557753
2010-03-30 11:48:30 51°13.337 2°37.443 17.6699 2.071749 14.93818 -1.557753
2010-03-30 11:49:30 51°13.128 2°37.544 17.6823 2.071026 14.934578 -1.557753
2010-03-30 11:50:30 51°12.921 2°37.646 17.7042 2.070716 14.952151 -1.557753
2010-03-30 11:51:30 51°12.714 2°37.744 17.6751 2.066688 14.925785 -1.557753
2010-03-30 11:52:30 51°12.535 2°37.652 17.7032 2.068754 14.945358 -1.557753
2010-03-30 11:53:29 51°12.415 2°37.418 17.709 2.065759 14.929814 -1.557753
2010-03-30 11:54:29 51°12.262 2°37.224 17.6836 2.064829 14.930857 -1.557753
2010-03-30 11:55:30 51°12.095 2°37.041 17.6887 2.064519 14.934101 -1.557753
2010-03-30 11:56:30 51°11.932 2°36.856 17.6812 2.063486 14.930439 -1.522929
2010-03-30 11:57:30 51°11.769 2°36.669 17.6749 2.062557 14.926093 -1.557753
2010-03-30 11:58:30 51°11.607 2°36.48 17.6832 2.060491 14.92056 -1.522929
2010-03-30 11:59:30 51°11.449 2°36.29 17.6791 2.060595 14.930373 -1.557753
2010-03-30 12:00:30 51°11.28 2°36.118 17.6773 2.059665 14.927824 -1.557753
2010-03-30 12:01:30 51°11.105 2°35.962 17.687 2.058839 14.911994 -1.557753
2010-03-30 12:02:30 51°10.905 2°35.901 17.6641 2.057703 14.92611 -1.557753
2010-03-30 12:03:30 51°10.699 2°35.874 17.6678 2.057187 14.930137 -1.557753
2010-03-30 12:04:30 51°10.496 2°35.841 17.6576 2.055121 14.910174 -1.557753
2010-03-30 12:05:30 51°10.292 2°35.82 17.6684 2.055327 14.916015 -1.557753
2010-03-30 12:06:30 51°10.091 2°35.905 17.6657 2.049337 14.879373 -1.557753
2010-03-30 12:07:30 51°9.929 2°36.157 17.6498 2.053675 14.921566 -1.557753
2010-03-30 12:08:30 51°9.781 2°36.437 17.6621 2.053159 14.925904 -1.557753
2010-03-30 12:09:30 51°9.658 2°36.673 17.6585 2.052333 14.925074 -1.557753
2010-03-30 12:10:30 51°9.572 2°36.869 17.6579 2.05161 14.922652 -1.557753
2010-03-30 12:11:30 51°9.5 2°37.058 17.6651 2.05099 14.920748 -1.557753
2010-03-30 12:12:30 51°9.459 2°37.226 17.6743 2.050061 14.916082 -1.557753
2010-03-30 12:13:30 51°9.476 2°37.371 17.6723 2.049028 14.910293 -1.557753
2010-03-30 12:14:30 51°9.503 2°37.451 17.6779 2.048511 14.908604 -1.557753
2010-03-30 12:15:33 51°9.511 2°37.494 17.687 2.047892 14.909109 -1.557753
2010-03-30 12:16:31 51°9.522 2°37.54 17.6958 2.047582 14.909663 -1.557753
2010-03-30 12:17:30 51°9.537 2°37.589 17.6963 2.047065 14.906465 -1.557753
2010-03-30 12:18:30 51°9.556 2°37.64 17.7007 2.046239 14.902011 -1.557753
2010-03-30 12:19:30 51°9.576 2°37.695 17.7041 2.045619 14.899499 -1.557753
2010-03-30 12:20:30 51°9.598 2°37.75 17.7173 2.045206 14.89893 -1.592577
2010-03-30 12:21:30 51°9.621 2°37.812 17.7212 2.044793 14.898663 -1.592577
2010-03-30 12:22:30 51°9.684 2°37.905 17.7289 2.043864 14.892479 -1.557753
2010-03-30 12:23:30 51°9.744 2°37.874 17.7331 2.043141 14.890652 -1.557753
2010-03-30 12:24:30 51°9.711 2°37.835 17.7299 2.042624 14.885942 -1.592577
2010-03-30 12:25:30 51°9.638 2°37.803 17.7432 2.042521 14.890249 -1.592577
2010-03-30 12:26:30 51°9.572 2°37.73 17.7504 2.042315 14.890719 -1.592577
2010-03-30 12:27:30 51°9.504 2°37.657 17.7469 2.041901 14.887734 -1.557753
2010-03-30 12:28:30 51°9.454 2°37.592 17.7553 2.041488 14.887767 -1.557753
2010-03-30 12:29:30 51°9.444 2°37.554 17.7628 2.041282 14.890955 -1.557753
2010-03-30 12:30:30 51°9.455 2°37.537 17.7636 2.040766 14.888354 -1.592577
2010-03-30 12:31:30 51°9.471 2°37.536 17.7653 2.040559 14.890033 -1.592577
2010-03-30 12:32:30 51°9.489 2°37.547 17.7698 2.040146 14.889765 -1.592577
2010-03-30 12:33:30 51°9.508 2°37.564 17.776 2.039733 14.890405 -1.592577
2010-03-30 12:34:30 51°9.526 2°37.584 17.7763 2.039423 14.890355 -1.557753
2010-03-30 12:35:30 51°9.545 2°37.6 17.7801 2.03901 14.890088 -1.557753
2010-03-30 12:36:30 51°9.56 2°37.612 17.7808 2.038597 14.890124 -1.592577
2010-03-30 12:37:30 51°9.57 2°37.619 17.7886 2.038184 14.890159 -1.592577
2010-03-30 12:38:30 51°9.58 2°37.622 17.7906 2.037874 14.889505 -1.557753
2010-03-30 12:39:30 51°9.587 2°37.623 17.7892 2.037667 14.891794 -1.557753
2010-03-30 12:40:30 51°9.59 2°37.625 17.7979 2.037358 14.891745 -1.592577
2010-03-30 12:41:30 51°9.593 2°37.625 17.8057 2.036945 14.891479 -1.592577
2010-03-30 12:42:30 51°9.594 2°37.624 17.8066 2.036635 14.891734 -1.592577
2010-03-30 12:43:30 51°9.594 2°37.622 17.8159 2.036222 14.890862 -1.592577
2010-03-30 12:44:30 51°9.593 2°37.62 17.8157 2.035809 14.890596 -1.592577
2010-03-30 12:45:30 51°9.592 2°37.621 17.8168 2.035499 14.890245 -1.592577
2010-03-30 12:46:30 51°9.59 2°37.623 17.8184 2.035292 14.891629 -1.592577
2010-03-30 12:47:30 51°9.554 2°37.591 17.8202 2.034879 14.890453 -1.592577
2010-03-30 12:48:30 51°9.519 2°37.532 17.8337 2.034466 14.889581 -1.592577
2010-03-30 12:49:30 51°9.519 2°37.5 17.8306 2.034156 14.889837 -1.592577
2010-03-30 12:50:30 51°9.535 2°37.487 17.8359 2.03395 14.891222 -1.592577
2010-03-30 12:51:30 51°9.546 2°37.483 17.8326 2.033433 14.889828 -1.592577
2010-03-30 12:52:29 51°9.551 2°37.48 17.8402 2.033124 14.889781 -1.592577
2010-03-30 12:53:29 51°9.553 2°37.472 17.8427 2.03302 14.891385 -1.592577
2010-03-30 12:54:30 51°9.555 2°37.463 17.843 2.032504 14.889687 -1.592577
2010-03-30 12:55:30 51°9.557 2°37.458 17.8484 2.032194 14.890248 -1.592577
2010-03-30 12:56:29 51°9.56 2°37.454 17.848 2.031988 14.891027 -1.592577
2010-03-30 12:57:30 51°9.562 2°37.453 17.8451 2.031574 14.889547 -1.592577
2010-03-30 12:58:29 51°9.563 2°37.455 17.8514 2.031265 14.889805 -1.592577
2010-03-30 12:59:30 51°9.562 2°37.457 17.855 2.031058 14.890584 -1.592577
2010-03-30 13:00:30 51°9.562 2°37.459 17.8571 2.030852 14.89106 -1.592577
2010-03-30 13:01:29 51°9.559 2°37.461 17.8595 2.030645 14.892145 -1.592577
2010-03-30 13:02:29 51°9.554 2°37.465 17.8578 2.030439 14.892926 -1.592577
2010-03-30 13:03:29 51°9.547 2°37.469 17.8636 2.029819 14.889488 -1.592577
2010-03-30 13:04:29 51°9.54 2°37.471 17.873 2.029612 14.891791 -1.592577
2010-03-30 13:05:29 51°9.533 2°37.472 17.8654 2.029199 14.890005 -1.592577
2010-03-30 13:06:29 51°9.53 2°37.477 17.8728 2.028993 14.891091 -1.592577
2010-03-30 13:07:29 51°9.532 2°37.486 17.8748 2.028786 14.891873 -1.592577
2010-03-30 13:08:28 51°9.537 2°37.496 17.8758 2.028476 14.891219 -1.592577
2010-03-30 13:09:29 51°9.543 2°37.506 17.8776 2.02796 14.889215 -1.592577
2010-03-30 13:10:29 51°9.548 2°37.512 17.8814 2.027754 14.889692 -1.592577
2010-03-30 13:11:29 51°9.548 2°37.515 17.8814 2.02765 14.891302 -1.592577
2010-03-30 13:12:29 51°9.545 2°37.515 17.887 2.027237 14.889211 -1.592577
2010-03-30 13:13:29 51°9.541 2°37.511 17.8846 2.026927 14.889776 -1.592577
2010-03-30 13:14:29 51°9.537 2°37.507 17.8891 2.026721 14.890254 -1.592577
2010-03-30 13:15:29 51°9.532 2°37.504 17.8949 2.026411 14.889905 -1.592577
2010-03-30 13:16:29 51°9.526 2°37.501 17.8924 2.026101 14.88925 -1.592577
2010-03-30 13:17:29 51°9.521 2°37.499 17.8971 2.025998 14.890557 -1.592577
2010-03-30 13:18:29 51°9.517 2°37.497 17.9036 2.025482 14.888552 -1.592577
2010-03-30 13:19:29 51°9.511 2°37.496 17.8972 2.025172 14.888202 -1.592577
2010-03-30 13:20:29 51°9.505 2°37.495 17.9023 2.025069 14.889204 -1.592577
2010-03-30 13:21:29 51°9.497 2°37.495 17.9043 2.024759 14.88916 -1.592577
2010-03-30 13:22:29 51°9.489 2°37.494 17.9083 2.024552 14.889029 -1.592577
2010-03-30 13:23:29 51°9.484 2°37.496 17.9146 2.024242 14.888985 -1.592577
2010-03-30 13:24:29 51°9.48 2°37.498 17.9156 2.024036 14.888854 -1.592577
2010-03-30 13:25:29 51°9.475 2°37.502 17.9172 2.023933 14.889858 -1.592577
2010-03-30 13:26:29 51°9.472 2°37.506 17.9211 2.023726 14.890643 -1.592577
2010-03-30 13:27:29 51°9.468 2°37.51 17.9236 2.02352 14.890818 -1.592577
2010-03-30 13:28:29 51°9.466 2°37.515 17.9232 2.023313 14.891298 -1.592577
2010-03-30 13:29:29 51°9.468 2°37.518 17.9289 2.023003 14.890338 -1.592577
2010-03-30 13:30:29 51°9.47 2°37.524 17.9267 2.022693 14.88999 -1.592577
2010-03-30 13:31:29 51°9.473 2°37.529 17.9321 2.022384 14.889335 -1.592577
2010-03-30 13:32:29 51°9.479 2°37.533 17.9317 2.02228 14.89034 -1.592577
2010-03-30 13:33:29 51°9.484 2°37.534 17.9326 2.022074 14.890209 -1.592577
2010-03-30 13:34:30 51°9.49 2°37.535 17.9402 2.021661 14.889031 -1.592577
2010-03-30 13:35:30 51°9.495 2°37.535 17.9454 2.021557 14.890036 -1.592577
2010-03-30 13:36:30 51°9.501 2°37.532 17.9418 2.021248 14.889994 -1.627401
2010-03-30 13:37:30 51°9.507 2°37.53 17.9461 2.021144 14.890999 -1.592577
2010-03-30 13:38:30 51°9.512 2°37.525 17.9503 2.020835 14.890345 -1.592577
2010-03-30 13:39:30 51°9.518 2°37.519 17.9473 2.020525 14.889078 -1.592577
2010-03-30 13:40:30 51°9.525 2°37.513 17.9532 2.020318 14.890173 -1.592577
2010-03-30 13:41:30 51°9.534 2°37.508 17.9536 2.020112 14.889736 -1.592577
2010-03-30 13:42:30 51°9.544 2°37.511 17.9549 2.020008 14.890743 -1.592577
2010-03-30 13:43:30 51°9.557 2°37.519 17.9626 2.019802 14.890919 -1.592577
2010-03-30 13:44:30 51°9.571 2°37.527 17.9599 2.019595 14.891095 -1.592577
2010-03-30 13:45:29 51°9.587 2°37.534 17.96 2.019286 14.890441 -1.592577
2010-03-30 13:46:30 51°9.603 2°37.542 17.9612 2.018976 14.889787 -1.592577
2010-03-30 13:47:29 51°9.618 2°37.55 17.9607 2.018872 14.889875 -1.592577
2010-03-30 13:48:30 51°9.634 2°37.556 17.9645 2.018563 14.88922 -1.592577
2010-03-30 13:49:30 51°9.661 2°37.519 17.9639 2.018253 14.887953 -1.592577
2010-03-30 13:50:30 51°9.753 2°37.519 17.9772 2.018459 14.894213 -1.627401
2010-03-30 13:51:30 51°9.854 2°37.752 17.9784 2.018976 14.901438 -1.592577
2010-03-30 13:52:30 51°9.885 2°38.134 17.9979 2.018563 14.898419 -1.627401
2010-03-30 13:53:30 51°9.938 2°38.526 17.9796 2.017633 14.890015 -1.592577
2010-03-30 13:54:30 51°9.987 2°38.918 17.9909 2.017737 14.893607 -1.592577
2010-03-30 13:55:29 51°10.018 2°39.297 17.9933 2.017633 14.894617 -1.592577
2010-03-30 13:56:30 51°10.049 2°39.686 18.0081 2.017324 14.893963 -1.592577
2010-03-30 13:57:30 51°10.069 2°40.071 18.0293 2.017324 14.897032 -1.592577
2010-03-30 13:58:30 51°10.06 2°40.456 18.0263 2.017117 14.896903 -1.627401
2010-03-30 13:59:30 51°10.051 2°40.847 18.0343 2.016807 14.896556 -1.592577
2010-03-30 14:00:30 51°10.044 2°41.234 18.044 2.016291 14.893624 -1.627401
2010-03-30 14:01:30 51°10.035 2°41.617 18.0542 2.016084 14.894416 -1.627401
2010-03-30 14:02:30 51°10.027 2°41.979 18.0748 2.016084 14.897181 -1.627401
2010-03-30 14:03:30 51°10.032 2°42.258 18.0785 2.016188 14.90201 -1.592577
2010-03-30 14:04:29 51°10.05 2°42.505 18.0818 2.015775 14.900524 -1.627401
2010-03-30 14:05:30 51°10.068 2°42.693 18.1001 2.015775 14.903599 -1.592577
2010-03-30 14:06:29 51°10.122 2°42.785 18.1082 2.014948 14.897858 -1.592577
2010-03-30 14:07:30 51°10.187 2°42.761 18.1105 2.014329 14.893475 -1.627401
2010-03-30 14:08:30 51°10.202 2°42.701 18.1156 2.014019 14.892206 -1.627401
2010-03-30 14:09:30 51°10.199 2°42.669 18.1264 2.013709 14.891552 -1.592577
2010-03-30 14:10:29 51°10.202 2°42.654 18.1288 2.013503 14.892038 -1.592577
2010-03-30 14:11:30 51°10.206 2°42.642 18.1286 2.013193 14.891384 -1.592577
2010-03-30 14:12:30 51°10.212 2°42.633 18.1366 2.013193 14.893537 -1.627401
2010-03-30 14:13:29 51°10.22 2°42.626 18.1392 2.012883 14.892267 -1.627401
2010-03-30 14:14:30 51°10.229 2°42.618 18.1434 2.012677 14.891831 -1.592577
2010-03-30 14:15:29 51°10.239 2°42.609 18.1489 2.012367 14.890869 -1.592577
2010-03-30 14:16:30 51°10.245 2°42.594 18.1485 2.01216 14.891356 -1.627401
2010-03-30 14:17:29 51°10.246 2°42.578 18.1508 2.01216 14.892279 -1.592577
2010-03-30 14:18:30 51°10.246 2°42.566 18.1519 2.01185 14.891625 -1.592577
2010-03-30 14:19:30 51°10.249 2°42.555 18.152 2.011644 14.891189 -1.627401
2010-03-30 14:20:30 51°10.257 2°42.545 18.1557 2.011437 14.891368 -1.627401
2010-03-30 14:21:30 51°10.264 2°42.535 18.1579 2.011231 14.892164 -1.627401
2010-03-30 14:22:30 51°10.271 2°42.527 18.1548 2.011128 14.89287 -1.592577
2010-03-30 14:23:30 51°10.278 2°42.519 18.1663 2.010818 14.892215 -1.627401
2010-03-30 14:24:29 51°10.287 2°42.51 18.1624 2.010611 14.892087 -1.627401
2010-03-30 14:25:30 51°10.294 2°42.5 18.1682 2.010405 14.891959 -1.592577
2010-03-30 14:26:30 51°10.303 2°42.489 18.1675 2.010198 14.891523 -1.627401
2010-03-30 14:27:30 51°10.311 2°42.48 18.1699 2.009992 14.891395 -1.627401
2010-03-30 14:28:30 51°10.32 2°42.471 18.1732 2.009888 14.892101 -1.592577
2010-03-30 14:29:30 51°10.328 2°42.465 18.1669 2.009785 14.893116 -1.592577
2010-03-30 14:30:30 51°10.341 2°42.466 18.1698 2.009579 14.892988 -1.627401
2010-03-30 14:31:29 51°10.357 2°42.472 18.1778 2.009269 14.892334 -1.627401
2010-03-30 14:32:30 51°10.375 2°42.481 18.1737 2.008959 14.890754 -1.627401
2010-03-30 14:33:29 51°10.395 2°42.492 18.1732 2.008752 14.891243 -1.592577
2010-03-30 14:34:30 51°10.412 2°42.485 18.1792 2.008546 14.891115 -1.627401
2010-03-30 14:35:29 51°10.388 2°42.449 18.1757 2.008339 14.891296 -1.627401
2010-03-30 14:36:30 51°10.347 2°42.517 18.1732 2.008133 14.889934 -1.627401
2010-03-30 14:37:30 51°10.309 2°42.653 18.1821 2.00803 14.891567 -1.627401
2010-03-30 14:38:30 51°10.257 2°42.777 18.1949 2.008236 14.895708 -1.627401
2010-03-30 14:39:30 51°10.211 2°42.834 18.1907 2.007926 14.895054 -1.627401
2010-03-30 14:40:30 51°10.174 2°42.86 18.2004 2.00772 14.894926 -1.627401
2010-03-30 14:41:30 51°10.16 2°42.86 18.2074 2.007513 14.895726 -1.627401
2010-03-30 14:42:29 51°10.168 2°42.852 18.207 2.0071 14.893618 -1.627401
2010-03-30 14:43:30 51°10.18 2°42.846 18.2101 2.006894 14.893491 -1.627401
2010-03-30 14:44:29 51°10.192 2°42.845 18.2101 2.006687 14.893363 -1.627401
2010-03-30 14:45:30 51°10.206 2°42.844 18.2108 2.006377 14.892709 -1.627401
2010-03-30 14:46:30 51°10.22 2°42.843 18.2148 2.006171 14.892582 -1.627401
2010-03-30 14:47:30 51°10.236 2°42.841 18.214 2.005861 14.891927 -1.592577
2010-03-30 14:48:30 51°10.252 2°42.84 18.2169 2.005758 14.892327 -1.627401
2010-03-30 14:49:29 51°10.267 2°42.84 18.2106 2.005551 14.891891 -1.592577
2010-03-30 14:50:30 51°10.282 2°42.841 18.2192 2.005345 14.891454 -1.592577
2010-03-30 14:51:29 51°10.297 2°42.841 18.2145 2.005241 14.891545 -1.627401
2010-03-30 14:52:30 51°10.314 2°42.843 18.2165 2.004932 14.890272 -1.627401
2010-03-30 14:53:29 51°10.329 2°42.843 18.2183 2.004828 14.890363 -1.627401
2010-03-30 14:54:30 51°10.346 2°42.844 18.2162 2.004622 14.889927 -1.627401
2010-03-30 14:55:29 51°10.361 2°42.846 18.2149 2.004725 14.892001 -1.592577
2010-03-30 14:56:30 51°10.376 2°42.849 18.2154 2.004519 14.891873 -1.627401
2010-03-30 14:57:30 51°10.39 2°42.852 18.2174 2.004519 14.892802 -1.627401
2010-03-30 14:58:29 51°10.406 2°42.855 18.2186 2.004105 14.890073 -1.627401
2010-03-30 14:59:30 51°10.424 2°42.858 18.2178 2.003899 14.889327 -1.627401
2010-03-30 15:00:29 51°10.441 2°42.861 18.2158 2.003796 14.889727 -1.592577
2010-03-30 15:01:30 51°10.458 2°42.865 18.2148 2.003796 14.890346 -1.627401
2010-03-30 15:02:29 51°10.475 2°42.869 18.2162 2.003589 14.888981 -1.627401
2010-03-30 15:03:30 51°10.493 2°42.872 18.2177 2.003383 14.888545 -1.627401
2010-03-30 15:04:30 51°10.525 2°42.822 18.2048 2.002763 14.883212 -1.592577
2010-03-30 15:05:30 51°10.608 2°42.86 18.2184 2.003486 14.894334 -1.627401
2010-03-30 15:06:30 51°10.64 2°42.961 18.2172 2.004002 14.899141 -1.627401
2010-03-30 15:07:29 51°10.657 2°43.044 18.2203 2.003899 14.898923 -1.627401
2010-03-30 15:08:30 51°10.667 2°43.152 18.224 2.003796 14.898705 -1.627401
2010-03-30 15:09:28 51°10.67 2°43.254 18.2273 2.003693 14.898178 -1.627401
2010-03-30 15:10:29 51°10.669 2°43.355 18.2313 2.003589 14.89703 -1.627401
2010-03-30 15:11:29 51°10.673 2°43.451 18.2361 2.003486 14.897742 -1.627401
2010-03-30 15:12:29 51°10.699 2°43.548 18.2407 2.003279 14.895447 -1.627401
2010-03-30 15:13:29 51°10.731 2°43.647 18.2482 2.003073 14.894701 -1.627401
2010-03-30 15:14:30 51°10.766 2°43.743 18.2599 2.003176 14.896158 -1.592577
2010-03-30 15:15:28 51°10.801 2°43.831 18.2615 2.002763 14.894046 -1.627401
2010-03-30 15:16:29 51°10.847 2°43.917 18.2735 2.002763 14.894666 -1.627401
2010-03-30 15:17:30 51°10.895 2°44 18.2719 2.00266 14.894758 -1.627401
2010-03-30 15:18:29 51°10.941 2°44.08 18.282 2.002453 14.893392 -1.627401
2010-03-30 15:19:30 51°10.986 2°44.16 18.2882 2.002557 14.89485 -1.627401
2010-03-30 15:20:29 51°11.031 2°44.237 18.2939 2.00235 14.893484 -1.592577
2010-03-30 15:21:29 51°11.074 2°44.317 18.2987 2.00235 14.893484 -1.627401
2010-03-30 15:22:28 51°11.115 2°44.399 18.2976 2.002453 14.894322 -1.627401
2010-03-30 15:23:30 51°11.153 2°44.503 18.315 2.003073 14.90338 -1.627401
2010-03-30 15:24:30 51°11.193 2°44.616 18.3175 2.002247 14.892956 -1.627401
2010-03-30 15:25:29 51°11.242 2°44.712 18.3242 2.001834 14.888675 -1.627401
2010-03-30 15:26:30 51°11.291 2°44.81 18.3237 2.001834 14.888365 -1.627401
2010-03-30 15:27:29 51°11.325 2°44.924 18.3185 2.001834 14.888365 -1.627401
2010-03-30 15:28:29 51°11.334 2°45.044 18.3209 2.001937 14.889823 -1.627401
2010-03-30 15:29:29 51°11.325 2°45.144 18.3256 2.00235 14.894103 -1.627401
2010-03-30 15:30:30 51°11.313 2°45.229 18.3348 2.003383 14.903723 -1.627401
2010-03-30 15:31:29 51°11.296 2°45.3 18.3323 2.003589 14.904779 -1.627401
2010-03-30 15:32:29 51°11.275 2°45.37 18.335 2.003176 14.898327 -1.627401
2010-03-30 15:33:29 51°11.26 2°45.429 18.3427 2.003383 14.922044 -1.627401
2010-03-30 15:34:30 51°11.254 2°45.476 18.3577 2.003693 14.910581 -1.627401
2010-03-30 15:35:30 51°11.255 2°45.515 18.3561 2.003177 14.926898 -1.627401
2010-03-30 15:36:29 51°11.26 2°45.554 18.3593 2.002351 14.945739 -1.627401
2010-03-30 15:37:29 51°11.27 2°45.597 18.3645 2.001628 14.947036 -1.627401
2010-03-30 15:38:29 51°11.282 2°45.639 18.3695 2.001628 14.965182 -1.627401
2010-03-30 15:39:29 51°11.297 2°45.677 18.3673 2.001319 14.967669 -1.627401
2010-03-30 15:40:28 51°11.296 2°45.751 18.3852 2.001318 14.948262 -1.627401
2010-03-30 15:41:29 51°11.335 2°45.871 18.3788 2.000183 14.954644 -1.627401
2010-03-30 15:42:30 51°11.379 2°45.931 18.3823 1.999873 14.963396 -1.627401
2010-03-30 15:43:29 51°11.403 2°45.966 18.3782 1.999666 14.960143 -1.627401
2010-03-30 15:44:30 51°11.424 2°45.993 18.3736 1.99946 14.958458 -1.627401
2010-03-30 15:45:30 51°11.44 2°46.023 18.3628 1.999253 14.956145 -1.627401
2010-03-30 15:46:30 51°11.455 2°46.059 18.3612 1.999047 14.954147 -1.627401
2010-03-30 15:47:28 51°11.49 2°46.087 18.3458 1.998324 14.946683 -1.627401
2010-03-30 15:48:29 51°11.593 2°46.252 18.3522 1.999047 14.961984 -1.627401
2010-03-30 15:49:28 51°11.664 2°46.595 18.3393 1.998014 14.951359 -1.627401
2010-03-30 15:50:29 51°11.758 2°46.952 18.3435 1.99884 14.954028 -1.627401
2010-03-30 15:51:29 51°11.86 2°47.298 18.3513 1.99853 14.953693 -1.627401
2010-03-30 15:52:29 51°11.963 2°47.642 18.3433 1.99853 14.952753 -1.627401
2010-03-30 15:53:29 51°12.063 2°47.988 18.352 1.998324 14.952321 -1.627401
2010-03-30 15:54:29 51°12.16 2°48.331 18.3325 1.997704 14.947264 -1.627401
2010-03-30 15:55:29 51°12.272 2°48.659 18.3481 1.998117 14.949695 -1.627401
2010-03-30 15:56:29 51°12.395 2°48.975 18.326 1.997601 14.944542 -1.627401
2010-03-30 15:57:29 51°12.521 2°49.292 18.3243 1.997291 14.94264 -1.627401
2010-03-30 15:58:30 51°12.649 2°49.618 18.322 1.997188 14.940232 -1.627401
2010-03-30 15:59:30 51°12.78 2°49.934 18.3228 1.997188 14.940545 -1.627401
2010-03-30 16:00:29 51°12.907 2°50.247 18.3239 1.996981 14.937921 -1.627401
2010-03-30 16:01:29 51°13.031 2°50.569 18.3283 1.996671 14.935393 -1.627401
2010-03-30 16:02:30 51°13.159 2°50.9 18.3155 1.996258 14.932336 -1.592577
2010-03-30 16:03:30 51°13.281 2°51.225 18.3213 1.996878 14.936765 -1.627401
2010-03-30 16:04:29 51°13.404 2°51.545 18.3206 1.996671 14.935393 -1.627401
2010-03-30 16:05:30 51°13.544 2°51.867 18.3325 1.997188 14.939293 -1.627401
2010-03-30 16:06:30 51°13.678 2°52.182 18.3113 1.996568 14.932048 -1.627401
2010-03-30 16:07:29 51°13.801 2°52.465 18.3094 1.996258 14.932023 -1.627401
2010-03-30 16:08:29 51°13.924 2°52.743 18.3098 1.995742 14.927498 -1.627401
2010-03-30 16:09:29 51°14.041 2°53.019 10.6926 2.006276 15.020382 -1.627401
2010-03-30 16:10:29 51°14.151 2°53.276 12.4012 2.003178 15.006723 -1.592577
2010-03-30 16:11:29 51°14.25 2°53.504 12.814 2.001836 15.005828 -1.592577
2010-03-30 16:12:29 51°14.331 2°53.705 12.9655 2.000286 14.992848 -1.627401
2010-03-30 16:13:29 51°14.402 2°53.884 13.0151 1.999357 14.982732 -1.627401
2010-03-30 16:14:29 51°14.458 2°54.051 13.1822 1.998634 14.974309 -1.627401
2010-03-30 16:15:29 51°14.523 2°54.277 13.5763 1.997498 14.962827 -1.627401
2010-03-30 16:16:29 51°14.585 2°54.579 13.6696 1.997808 14.965987 -1.627401
2010-03-30 16:17:29 51°14.589 2°54.903 13.8349 2.002868 15.015219 -1.627401
2010-03-30 16:18:29 51°14.442 2°55.108 13.9597 1.998014 14.969874 -1.627401
2010-03-30 16:19:29 51°14.28 2°55.28 14.2917 1.997808 14.966301 -1.627401
2010-03-30 16:20:29 51°14.148 2°55.395 14.1122 1.997188 14.97853 -1.627401
2010-03-30 16:21:29 51°14.043 2°55.478 14.4453 1.996879 14.977255 -1.627401
2010-03-30 16:22:29 51°13.958 2°55.542 14.1446 1.996465 14.973246 -1.592577
2010-03-30 16:23:28 51°13.865 2°55.608 14.5319 1.995949 14.968707 -1.627401
2010-03-30 16:24:30 51°13.787 2°55.677 14.7466 1.995742 14.967962 -1.627401
2010-03-30 16:25:30 51°13.733 2°55.766 14.5532 1.995639 14.96869 -1.627401
2010-03-30 16:26:29 51°13.691 2°55.855 14.5259 1.995433 14.967944 -1.627401
2010-03-30 16:27:28 51°13.666 2°55.941 15.2359 1.994916 14.963405 -1.592577